createdAt,value
2022-11-27T00:00:38.687Z,0.00
2022-11-27T00:01:38.611Z,0.00
2022-11-27T00:02:40.710Z,0.00
2022-11-27T00:03:38.634Z,0.00
2022-11-27T00:04:38.643Z,0.00
2022-11-27T00:05:38.524Z,0.00
2022-11-27T00:06:38.850Z,0.00
2022-11-27T00:07:38.533Z,0.00
2022-11-27T00:08:38.456Z,0.00
2022-11-27T00:09:38.899Z,0.00
2022-11-27T00:10:38.536Z,0.00
2022-11-27T00:11:38.519Z,0.00
2022-11-27T00:12:38.492Z,0.00
2022-11-27T00:13:38.484Z,0.00
2022-11-27T00:14:38.532Z,0.00
2022-11-27T00:15:39.338Z,0.00
2022-11-27T00:16:38.440Z,0.00
2022-11-27T00:17:38.504Z,0.00
2022-11-27T00:18:38.468Z,0.00
2022-11-27T00:19:38.914Z,0.00
2022-11-27T00:20:38.424Z,0.00
2022-11-27T00:21:38.372Z,0.00
2022-11-27T00:22:38.708Z,0.00
2022-11-27T00:23:38.436Z,0.00
2022-11-27T00:24:38.579Z,0.00
2022-11-27T00:25:38.508Z,0.00
2022-11-27T00:26:38.627Z,0.00
2022-11-27T00:27:38.342Z,0.00
2022-11-27T00:28:38.433Z,0.00
2022-11-27T00:29:38.401Z,0.00
2022-11-27T00:30:38.289Z,0.00
2022-11-27T00:31:38.527Z,0.00
2022-11-27T00:32:38.376Z,0.00
2022-11-27T00:33:38.401Z,0.00
2022-11-27T00:34:38.434Z,0.00
2022-11-27T00:35:38.297Z,0.00
2022-11-27T00:36:38.283Z,0.00
2022-11-27T00:37:38.124Z,0.00
2022-11-27T00:38:39.145Z,0.00
2022-11-27T00:39:38.241Z,0.00
2022-11-27T00:40:38.126Z,0.00
2022-11-27T00:41:38.264Z,0.00
2022-11-27T00:42:38.266Z,0.00
2022-11-27T00:43:43.983Z,0.00
2022-11-27T00:44:40.523Z,0.00
2022-11-27T00:45:38.290Z,0.00
2022-11-27T00:46:38.028Z,0.00
2022-11-27T00:47:38.742Z,0.00
2022-11-27T00:48:38.071Z,0.00
2022-11-27T00:49:38.750Z,0.00
2022-11-27T00:50:38.846Z,0.00
2022-11-27T00:51:38.205Z,0.00
2022-11-27T00:52:38.307Z,0.00
2022-11-27T00:53:38.006Z,0.00
2022-11-27T00:54:38.219Z,0.00
2022-11-27T00:55:38.039Z,0.00
2022-11-27T00:56:38.123Z,0.00
2022-11-27T00:57:38.095Z,0.00
2022-11-27T00:58:39.009Z,0.00
2022-11-27T00:59:38.137Z,0.00
2022-11-27T01:00:38.074Z,0.00
2022-11-27T01:01:38.147Z,0.00
2022-11-27T01:02:38.068Z,0.00
2022-11-27T01:03:38.065Z,0.00
2022-11-27T01:04:38.041Z,0.00
2022-11-27T01:05:37.948Z,0.00
2022-11-27T01:06:37.984Z,0.00
2022-11-27T01:07:38.026Z,0.00
2022-11-27T01:08:38.740Z,0.00
2022-11-27T01:09:37.988Z,0.00
2022-11-27T01:10:37.921Z,0.00
2022-11-27T01:11:38.260Z,0.00
2022-11-27T01:12:38.102Z,0.00
2022-11-27T01:13:37.774Z,0.00
2022-11-27T01:14:37.907Z,0.00
2022-11-27T01:15:37.777Z,0.00
2022-11-27T01:16:42.058Z,0.00
2022-11-27T01:17:39.804Z,0.00
2022-11-27T01:18:37.577Z,0.00
2022-11-27T01:19:37.697Z,0.00
2022-11-27T01:20:37.589Z,0.00
2022-11-27T01:21:38.545Z,0.00
2022-11-27T01:22:37.640Z,0.00
2022-11-27T01:23:37.637Z,0.00
2022-11-27T01:24:38.082Z,0.00
2022-11-27T01:25:37.755Z,0.00
2022-11-27T01:26:37.617Z,0.00
2022-11-27T01:27:37.569Z,0.00
2022-11-27T01:28:37.905Z,0.00
2022-11-27T01:29:37.560Z,0.00
2022-11-27T01:30:37.520Z,0.00
2022-11-27T01:31:37.594Z,0.00
2022-11-27T01:32:37.597Z,0.00
2022-11-27T01:33:37.642Z,0.00
2022-11-27T01:34:37.922Z,0.00
2022-11-27T01:35:37.541Z,0.00
2022-11-27T01:36:37.470Z,0.00
2022-11-27T01:37:37.568Z,0.00
2022-11-27T01:38:37.433Z,0.00
2022-11-27T01:39:37.694Z,0.00
2022-11-27T01:40:37.454Z,0.00
2022-11-27T01:41:37.484Z,0.00
2022-11-27T01:42:37.521Z,0.00
2022-11-27T01:43:37.395Z,0.00
2022-11-27T01:44:37.578Z,0.00
2022-11-27T01:45:37.329Z,0.00
2022-11-27T01:46:37.518Z,0.00
2022-11-27T01:47:37.343Z,0.00
2022-11-27T01:48:37.399Z,0.00
2022-11-27T01:49:37.388Z,0.00
2022-11-27T01:50:37.250Z,0.00
2022-11-27T01:51:37.334Z,0.00
2022-11-27T01:52:37.299Z,0.00
2022-11-27T01:53:37.303Z,0.00
2022-11-27T01:54:37.514Z,0.00
2022-11-27T01:55:37.398Z,0.00
2022-11-27T01:56:37.334Z,0.00
2022-11-27T01:57:37.407Z,0.00
2022-11-27T01:58:37.262Z,0.00
2022-11-27T01:59:38.150Z,0.00
2022-11-27T02:00:37.248Z,0.00
2022-11-27T02:01:37.225Z,0.00
2022-11-27T02:02:37.271Z,0.00
2022-11-27T02:03:38.059Z,0.00
2022-11-27T02:04:37.285Z,0.00
2022-11-27T02:05:37.152Z,0.00
2022-11-27T02:06:37.119Z,0.00
2022-11-27T02:07:37.260Z,0.00
2022-11-27T02:08:37.159Z,0.00
2022-11-27T02:09:37.138Z,0.00
2022-11-27T02:10:37.095Z,0.00
2022-11-27T02:11:37.119Z,0.00
2022-11-27T02:12:37.127Z,0.00
2022-11-27T02:13:37.063Z,0.00
2022-11-27T02:14:37.040Z,0.00
2022-11-27T02:15:37.159Z,0.00
2022-11-27T02:16:37.104Z,0.00
2022-11-27T02:17:37.067Z,0.00
2022-11-27T02:18:36.976Z,0.00
2022-11-27T02:19:36.972Z,0.00
2022-11-27T02:20:36.933Z,0.00
2022-11-27T02:21:37.083Z,0.00
2022-11-27T02:22:36.964Z,0.00
2022-11-27T02:23:36.919Z,0.00
2022-11-27T02:24:37.009Z,0.00
2022-11-27T02:25:36.935Z,0.00
2022-11-27T02:26:36.877Z,0.00
2022-11-27T02:27:36.939Z,0.00
2022-11-27T02:28:37.038Z,0.00
2022-11-27T02:29:36.837Z,0.00
2022-11-27T02:30:36.894Z,0.00
2022-11-27T02:31:36.926Z,0.00
2022-11-27T02:32:37.903Z,0.00
2022-11-27T02:33:36.831Z,0.00
2022-11-27T02:34:37.086Z,0.00
2022-11-27T02:35:36.824Z,0.00
2022-11-27T02:36:36.885Z,0.00
2022-11-27T02:37:36.861Z,0.00
2022-11-27T02:38:36.841Z,0.00
2022-11-27T02:39:36.802Z,0.00
2022-11-27T02:40:36.796Z,0.00
2022-11-27T02:41:36.772Z,0.00
2022-11-27T02:42:36.767Z,0.00
2022-11-27T02:43:37.142Z,0.00
2022-11-27T02:44:36.890Z,0.00
2022-11-27T02:45:36.775Z,0.00
2022-11-27T02:46:36.795Z,0.00
2022-11-27T02:47:36.757Z,0.00
2022-11-27T02:48:36.749Z,0.00
2022-11-27T02:49:36.645Z,0.00
2022-11-27T02:50:36.658Z,0.00
2022-11-27T02:51:36.645Z,0.00
2022-11-27T02:52:36.634Z,0.00
2022-11-27T02:53:36.649Z,0.00
2022-11-27T02:54:36.742Z,0.00
2022-11-27T02:55:36.650Z,0.00
2022-11-27T02:56:36.609Z,0.00
2022-11-27T02:57:36.605Z,0.00
2022-11-27T02:58:36.826Z,0.00
2022-11-27T02:59:36.601Z,0.00
2022-11-27T03:00:36.594Z,0.00
2022-11-27T03:01:36.554Z,0.00
2022-11-27T03:02:36.596Z,0.00
2022-11-27T03:03:36.591Z,0.00
2022-11-27T03:04:36.514Z,0.00
2022-11-27T03:05:36.665Z,0.00
2022-11-27T03:06:36.518Z,0.00
2022-11-27T03:07:36.447Z,0.00
2022-11-27T03:08:36.489Z,0.00
2022-11-27T03:09:36.466Z,0.00
2022-11-27T03:10:36.443Z,0.00
2022-11-27T03:11:36.398Z,0.00
2022-11-27T03:12:36.570Z,0.00
2022-11-27T03:13:36.408Z,0.00
2022-11-27T03:14:36.442Z,0.00
2022-11-27T03:15:36.383Z,0.00
2022-11-27T03:16:36.461Z,0.00
2022-11-27T03:17:36.348Z,0.00
2022-11-27T03:18:36.390Z,0.00
2022-11-27T03:19:36.375Z,0.00
2022-11-27T03:20:36.366Z,0.00
2022-11-27T03:21:36.507Z,0.00
2022-11-27T03:22:36.337Z,0.00
2022-11-27T03:23:36.255Z,0.00
2022-11-27T03:24:36.264Z,0.00
2022-11-27T03:25:36.279Z,0.00
2022-11-27T03:26:36.369Z,0.00
2022-11-27T03:27:36.183Z,0.00
2022-11-27T03:28:36.327Z,0.00
2022-11-27T03:29:36.242Z,0.00
2022-11-27T03:30:36.279Z,0.00
2022-11-27T03:31:37.182Z,0.00
2022-11-27T03:32:36.192Z,0.00
2022-11-27T03:33:36.219Z,0.00
2022-11-27T03:34:36.204Z,0.00
2022-11-27T03:35:36.179Z,0.00
2022-11-27T03:36:36.135Z,0.00
2022-11-27T03:37:36.257Z,0.00
2022-11-27T03:38:36.200Z,0.00
2022-11-27T03:39:36.139Z,0.00
2022-11-27T03:40:36.159Z,0.00
2022-11-27T03:41:36.152Z,0.00
2022-11-27T03:42:36.160Z,0.00
2022-11-27T03:43:36.186Z,0.00
2022-11-27T03:44:36.100Z,0.00
2022-11-27T03:45:36.122Z,0.00
2022-11-27T03:46:36.190Z,0.00
2022-11-27T03:47:36.188Z,0.00
2022-11-27T03:48:35.974Z,0.00
2022-11-27T03:49:36.152Z,0.00
2022-11-27T03:50:36.028Z,0.00
2022-11-27T03:51:35.997Z,0.00
2022-11-27T03:52:36.027Z,0.00
2022-11-27T03:53:35.970Z,0.00
2022-11-27T03:54:35.941Z,0.00
2022-11-27T03:55:36.092Z,0.00
2022-11-27T03:56:36.013Z,0.00
2022-11-27T03:57:35.892Z,0.00
2022-11-27T03:58:35.898Z,0.00
2022-11-27T03:59:35.928Z,0.00
2022-11-27T04:00:35.956Z,0.00
2022-11-27T04:01:36.566Z,0.00
2022-11-27T04:02:41.755Z,0.00
2022-11-27T04:03:37.023Z,0.00
2022-11-27T04:04:36.035Z,0.00
2022-11-27T04:05:35.873Z,0.00
2022-11-27T04:06:35.819Z,0.00
2022-11-27T04:07:37.081Z,0.00
2022-11-27T04:08:35.857Z,0.00
2022-11-27T04:09:35.821Z,0.00
2022-11-27T04:10:35.767Z,0.00
2022-11-27T04:11:35.775Z,0.00
2022-11-27T04:12:35.739Z,0.00
2022-11-27T04:13:35.719Z,0.00
2022-11-27T04:14:35.834Z,0.00
2022-11-27T04:15:35.647Z,0.00
2022-11-27T04:16:35.902Z,0.00
2022-11-27T04:17:35.848Z,0.00
2022-11-27T04:18:35.704Z,0.00
2022-11-27T04:19:35.713Z,0.00
2022-11-27T04:20:35.644Z,0.00
2022-11-27T04:21:35.783Z,0.00
2022-11-27T04:22:35.684Z,0.00
2022-11-27T04:23:35.680Z,0.00
2022-11-27T04:24:35.649Z,0.00
2022-11-27T04:25:35.618Z,0.00
2022-11-27T04:26:35.614Z,0.00
2022-11-27T04:27:35.558Z,0.00
2022-11-27T04:28:35.643Z,0.00
2022-11-27T04:29:35.607Z,0.00
2022-11-27T04:30:35.575Z,0.00
2022-11-27T04:31:35.597Z,0.00
2022-11-27T04:32:35.607Z,0.00
2022-11-27T04:33:35.519Z,0.00
2022-11-27T04:34:35.566Z,0.00
2022-11-27T04:35:35.694Z,0.00
2022-11-27T04:36:39.209Z,0.00
2022-11-27T04:37:36.504Z,0.00
2022-11-27T04:38:35.447Z,0.00
2022-11-27T04:39:35.456Z,0.00
2022-11-27T04:40:35.423Z,0.00
2022-11-27T04:41:35.491Z,0.00
2022-11-27T04:42:35.452Z,0.00
2022-11-27T04:43:35.372Z,0.00
2022-11-27T04:44:35.544Z,0.00
2022-11-27T04:45:35.388Z,0.00
2022-11-27T04:46:35.512Z,0.00
2022-11-27T04:47:35.348Z,0.00
2022-11-27T04:48:35.556Z,0.00
2022-11-27T04:49:35.319Z,0.00
2022-11-27T04:50:35.336Z,0.00
2022-11-27T04:51:35.376Z,0.00
2022-11-27T04:52:35.341Z,0.00
2022-11-27T04:53:35.321Z,0.00
2022-11-27T04:54:35.328Z,0.00
2022-11-27T04:55:35.275Z,0.00
2022-11-27T04:56:36.023Z,0.00
2022-11-27T04:57:35.368Z,0.00
2022-11-27T04:58:35.305Z,0.00
2022-11-27T04:59:35.269Z,0.00
2022-11-27T05:00:35.303Z,0.00
2022-11-27T05:01:35.260Z,0.00
2022-11-27T05:02:36.205Z,0.00
2022-11-27T05:03:35.209Z,0.00
2022-11-27T05:04:35.271Z,0.00
2022-11-27T05:05:35.202Z,0.00
2022-11-27T05:06:35.144Z,0.00
2022-11-27T05:07:35.324Z,0.00
2022-11-27T05:08:35.265Z,0.00
2022-11-27T05:09:35.223Z,0.00
2022-11-27T05:10:35.128Z,0.00
2022-11-27T05:11:35.180Z,0.00
2022-11-27T05:12:35.103Z,0.00
2022-11-27T05:13:35.142Z,0.00
2022-11-27T05:14:35.096Z,0.00
2022-11-27T05:15:35.057Z,0.00
2022-11-27T05:16:35.101Z,0.00
2022-11-27T05:17:35.053Z,0.00
2022-11-27T05:18:34.993Z,0.00
2022-11-27T05:19:35.982Z,0.00
2022-11-27T05:20:35.062Z,0.00
2022-11-27T05:21:35.141Z,0.00
2022-11-27T05:22:34.982Z,0.00
2022-11-27T05:23:35.101Z,0.00
2022-11-27T05:24:34.968Z,0.00
2022-11-27T05:25:34.993Z,0.00
2022-11-27T05:26:34.914Z,0.00
2022-11-27T05:27:35.041Z,0.00
2022-11-27T05:28:34.937Z,0.00
2022-11-27T05:29:35.469Z,0.00
2022-11-27T05:30:35.000Z,0.00
2022-11-27T05:31:35.084Z,0.00
2022-11-27T05:32:34.801Z,0.00
2022-11-27T05:33:35.057Z,0.00
2022-11-27T05:34:35.039Z,0.00
2022-11-27T05:35:34.942Z,0.00
2022-11-27T05:36:34.865Z,0.00
2022-11-27T05:37:34.800Z,0.00
2022-11-27T05:38:34.873Z,0.00
2022-11-27T05:39:35.973Z,0.00
2022-11-27T05:40:34.813Z,0.00
2022-11-27T05:41:34.809Z,0.00
2022-11-27T05:42:34.822Z,0.00
2022-11-27T05:43:34.855Z,0.00
2022-11-27T05:44:34.845Z,0.00
2022-11-27T05:45:34.990Z,0.00
2022-11-27T05:46:34.956Z,0.00
2022-11-27T05:47:34.721Z,0.00
2022-11-27T05:48:34.963Z,0.00
2022-11-27T05:49:34.833Z,0.00
2022-11-27T05:50:34.681Z,0.00
2022-11-27T05:51:34.800Z,0.00
2022-11-27T05:52:34.691Z,0.00
2022-11-27T05:53:34.810Z,0.00
2022-11-27T05:54:34.840Z,0.00
2022-11-27T05:55:34.810Z,0.00
2022-11-27T05:56:34.647Z,0.00
2022-11-27T05:57:35.589Z,0.00
2022-11-27T05:58:34.662Z,0.00
2022-11-27T05:59:34.722Z,0.00
2022-11-27T06:00:34.667Z,0.00
2022-11-27T06:01:34.628Z,0.00
2022-11-27T06:02:34.757Z,0.00
2022-11-27T06:03:35.638Z,0.00
2022-11-27T06:04:34.864Z,0.00
2022-11-27T06:05:34.667Z,0.00
2022-11-27T06:06:34.573Z,0.00
2022-11-27T06:07:34.661Z,0.00
2022-11-27T06:08:34.514Z,0.00
2022-11-27T06:09:34.539Z,0.00
2022-11-27T06:10:34.576Z,0.00
2022-11-27T06:11:34.558Z,0.00
2022-11-27T06:12:34.599Z,0.00
2022-11-27T06:13:34.459Z,0.00
2022-11-27T06:14:34.664Z,0.00
2022-11-27T06:15:34.608Z,0.00
2022-11-27T06:16:34.656Z,0.00
2022-11-27T06:17:34.527Z,0.00
2022-11-27T06:18:34.557Z,0.00
2022-11-27T06:19:34.447Z,0.00
2022-11-27T06:20:34.363Z,0.00
2022-11-27T06:21:34.330Z,0.00
2022-11-27T06:22:34.367Z,0.00
2022-11-27T06:23:34.285Z,0.00
2022-11-27T06:24:34.363Z,4.00
2022-11-27T06:25:34.407Z,0.00
2022-11-27T06:26:34.350Z,0.00
2022-11-27T06:27:34.355Z,4.00
2022-11-27T06:28:35.364Z,0.00
2022-11-27T06:29:34.240Z,4.00
2022-11-27T06:30:34.285Z,0.00
2022-11-27T06:31:34.408Z,4.00
2022-11-27T06:32:34.292Z,4.00
2022-11-27T06:33:34.419Z,4.00
2022-11-27T06:34:34.264Z,8.00
2022-11-27T06:35:34.167Z,4.00
2022-11-27T06:36:34.237Z,8.00
2022-11-27T06:37:34.192Z,12.00
2022-11-27T06:38:34.177Z,12.00
2022-11-27T06:39:34.173Z,12.00
2022-11-27T06:40:34.416Z,16.00
2022-11-27T06:41:34.286Z,16.00
2022-11-27T06:42:34.251Z,16.00
2022-11-27T06:43:34.200Z,24.00
2022-11-27T06:44:34.334Z,24.00
2022-11-27T06:45:34.128Z,28.00
2022-11-27T06:46:34.254Z,32.00
2022-11-27T06:47:34.173Z,36.00
2022-11-27T06:48:34.040Z,44.00
2022-11-27T06:49:34.092Z,48.00
2022-11-27T06:50:34.109Z,52.00
2022-11-27T06:51:34.089Z,60.00
2022-11-27T06:52:38.808Z,64.00
2022-11-27T06:53:36.059Z,76.00
2022-11-27T06:54:34.003Z,80.00
2022-11-27T06:55:33.910Z,92.00
2022-11-27T06:56:34.093Z,96.00
2022-11-27T06:57:33.984Z,108.00
2022-11-27T06:58:34.027Z,116.00
2022-11-27T06:59:34.054Z,132.00
2022-11-27T07:00:34.077Z,148.00
2022-11-27T07:01:34.076Z,156.00
2022-11-27T07:02:34.121Z,172.00
2022-11-27T07:03:33.901Z,184.00
2022-11-27T07:04:34.066Z,200.00
2022-11-27T07:05:33.958Z,212.00
2022-11-27T07:06:33.882Z,236.00
2022-11-27T07:07:36.748Z,260.00
2022-11-27T07:08:33.961Z,280.00
2022-11-27T07:09:33.977Z,304.00
2022-11-27T07:10:34.034Z,324.00
2022-11-27T07:11:33.928Z,348.00
2022-11-27T07:12:33.887Z,376.00
2022-11-27T07:13:33.883Z,416.00
2022-11-27T07:14:33.813Z,484.00
2022-11-27T07:15:33.874Z,568.00
2022-11-27T07:16:33.824Z,684.00
2022-11-27T07:17:34.017Z,872.00
2022-11-27T07:18:33.814Z,1040.00
2022-11-27T07:19:33.842Z,1176.00
2022-11-27T07:20:33.817Z,1312.00
2022-11-27T07:21:33.842Z,1448.00
2022-11-27T07:22:33.706Z,1544.00
2022-11-27T07:23:33.663Z,1692.00
2022-11-27T07:24:33.822Z,2288.00
2022-11-27T07:25:33.686Z,2256.00
2022-11-27T07:26:33.742Z,2648.00
2022-11-27T07:27:33.736Z,3164.00
2022-11-27T07:28:33.679Z,3364.00
2022-11-27T07:29:33.603Z,4120.00
2022-11-27T07:30:33.599Z,4564.00
2022-11-27T07:31:33.674Z,5108.00
2022-11-27T07:32:33.594Z,5972.00
2022-11-27T07:33:33.567Z,5528.00
2022-11-27T07:34:33.566Z,5132.00
2022-11-27T07:35:33.626Z,4148.00
2022-11-27T07:36:33.652Z,2360.00
2022-11-27T07:37:33.538Z,2260.00
2022-11-27T07:38:33.607Z,2316.00
2022-11-27T07:39:54.414Z,2460.00
2022-11-27T07:40:35.519Z,2720.00
2022-11-27T07:41:34.237Z,3092.00
2022-11-27T07:42:38.334Z,3580.00
2022-11-27T07:43:35.534Z,4496.00
2022-11-27T07:44:33.479Z,5024.00
2022-11-27T07:45:33.513Z,5068.00
2022-11-27T07:46:33.459Z,5016.00
2022-11-27T07:47:34.096Z,4960.00
2022-11-27T07:48:33.387Z,5428.00
2022-11-27T07:49:33.658Z,5664.00
2022-11-27T07:50:33.361Z,6016.00
2022-11-27T07:51:33.339Z,8264.00
2022-11-27T07:52:38.042Z,13120.00
2022-11-27T07:53:35.379Z,12800.00
2022-11-27T07:54:33.436Z,11520.00
2022-11-27T07:55:33.389Z,8872.00
2022-11-27T07:56:33.644Z,8404.00
2022-11-27T07:57:33.406Z,10956.00
2022-11-27T07:58:33.333Z,10524.00
2022-11-27T07:59:33.293Z,7192.00
2022-11-27T08:00:33.413Z,6392.00
2022-11-27T08:01:33.436Z,6308.00
2022-11-27T08:02:33.288Z,8404.00
2022-11-27T08:03:33.329Z,8420.00
2022-11-27T08:04:33.256Z,9304.00
2022-11-27T08:05:33.279Z,11320.00
2022-11-27T08:06:33.213Z,10556.00
2022-11-27T08:07:33.252Z,6224.00
2022-11-27T08:08:33.268Z,4880.00
2022-11-27T08:09:33.333Z,5412.00
2022-11-27T08:10:33.206Z,5624.00
2022-11-27T08:11:33.192Z,6140.00
2022-11-27T08:28:46.541Z,6352.00
2022-11-27T08:29:52.806Z,5808.00
2022-11-27T08:30:47.675Z,5756.00
2022-11-27T08:31:47.671Z,5812.00
2022-11-27T08:32:47.801Z,6088.00
2022-11-27T08:33:48.616Z,6240.00
2022-11-27T08:34:47.573Z,6172.00
2022-11-27T08:35:47.704Z,6172.00
2022-11-27T08:36:47.733Z,6536.00
2022-11-27T08:37:47.684Z,6700.00
2022-11-27T08:38:47.726Z,7000.00
2022-11-27T08:39:47.550Z,7040.00
2022-11-27T08:40:47.561Z,7200.00
2022-11-27T08:41:47.585Z,7276.00
2022-11-27T08:42:47.536Z,7180.00
2022-11-27T08:43:47.403Z,7112.00
2022-11-27T08:44:48.402Z,6804.00
2022-11-27T08:45:47.587Z,7552.00
2022-11-27T08:46:47.492Z,8552.00
2022-11-27T08:47:47.501Z,10848.00
2022-11-27T08:48:47.735Z,8304.00
2022-11-27T08:49:47.413Z,11168.00
2022-11-27T08:50:47.392Z,6404.00
2022-11-27T08:51:47.377Z,6292.00
2022-11-27T08:52:47.381Z,6836.00
2022-11-27T08:53:47.436Z,6196.00
2022-11-27T08:54:47.427Z,6092.00
2022-11-27T08:55:47.482Z,6744.00
2022-11-27T08:56:47.397Z,6464.00
2022-11-27T08:57:47.261Z,6204.00
2022-11-27T08:58:47.374Z,6220.00
2022-11-27T08:59:47.364Z,6260.00
2022-11-27T09:00:47.780Z,6400.00
2022-11-27T09:01:47.266Z,6528.00
2022-11-27T09:02:47.332Z,6704.00
2022-11-27T09:03:47.222Z,6784.00
2022-11-27T09:04:48.052Z,6948.00
2022-11-27T09:05:47.310Z,7184.00
2022-11-27T09:06:47.224Z,7704.00
2022-11-27T09:07:47.265Z,8044.00
2022-11-27T09:08:47.182Z,8048.00
2022-11-27T09:09:48.082Z,10760.00
2022-11-27T09:10:47.115Z,8476.00
2022-11-27T09:11:47.047Z,8316.00
2022-11-27T09:12:47.028Z,9412.00
2022-11-27T09:13:47.097Z,13900.00
2022-11-27T09:14:46.986Z,16448.00
2022-11-27T09:15:47.129Z,22752.00
2022-11-27T09:16:47.150Z,23104.00
2022-11-27T09:17:46.994Z,15968.00
2022-11-27T09:18:47.170Z,21536.00
2022-11-27T09:19:46.934Z,20064.00
2022-11-27T09:20:48.410Z,19744.00
2022-11-27T09:23:14.609Z,17472.00
2022-11-27T09:23:16.437Z,16640.00
2022-11-27T09:24:16.305Z,20576.00
2022-11-27T09:25:16.366Z,22496.00
2022-11-27T09:26:16.421Z,38784.00
2022-11-27T09:27:16.253Z,44512.00
2022-11-27T09:28:16.467Z,43104.00
2022-11-27T09:29:16.237Z,26624.00
2022-11-27T09:30:16.458Z,19200.00
2022-11-27T09:31:16.196Z,19968.00
2022-11-27T09:32:16.371Z,18656.00
2022-11-27T09:33:16.218Z,16320.00
2022-11-27T09:34:16.164Z,20640.00
2022-11-27T09:35:16.203Z,25920.00
2022-11-27T09:36:16.309Z,16608.00
2022-11-27T09:37:16.328Z,16160.00
2022-11-27T09:38:16.263Z,16256.00
2022-11-27T09:39:16.109Z,21024.00
2022-11-27T09:40:16.127Z,21408.00
2022-11-27T09:41:16.032Z,18560.00
2022-11-27T09:42:16.036Z,17536.00
2022-11-27T09:43:16.167Z,18816.00
2022-11-27T09:44:16.137Z,30656.00
2022-11-27T09:45:15.985Z,43968.00
2022-11-27T09:46:15.999Z,32096.00
2022-11-27T09:47:16.045Z,25696.00
2022-11-27T09:48:16.055Z,12284.00
2022-11-27T09:49:15.985Z,11268.00
2022-11-27T09:50:17.285Z,10820.00
2022-11-27T09:51:16.061Z,10612.00
2022-11-27T09:52:16.277Z,10592.00
2022-11-27T09:53:16.354Z,10552.00
2022-11-27T09:54:16.423Z,10452.00
2022-11-27T09:55:15.879Z,10532.00
2022-11-27T09:56:15.885Z,10608.00
2022-11-27T09:57:15.893Z,9936.00
2022-11-27T09:58:15.993Z,9684.00
2022-11-27T09:59:15.873Z,9556.00
2022-11-27T10:00:15.971Z,9548.00
2022-11-27T10:01:15.944Z,9628.00
2022-11-27T10:02:15.987Z,9732.00
2022-11-27T10:03:15.936Z,10012.00
2022-11-27T10:04:15.894Z,10432.00
2022-11-27T10:05:16.602Z,10772.00
2022-11-27T10:06:15.954Z,11068.00
2022-11-27T10:07:16.817Z,11228.00
2022-11-27T10:08:15.871Z,11232.00
2022-11-27T10:09:15.762Z,11000.00
2022-11-27T10:10:15.742Z,10448.00
2022-11-27T10:11:15.770Z,10012.00
2022-11-27T10:12:15.729Z,9628.00
2022-11-27T10:13:15.741Z,9212.00
2022-11-27T10:14:15.687Z,8832.00
2022-11-27T10:15:15.754Z,8488.00
2022-11-27T10:16:15.779Z,8244.00
2022-11-27T10:17:15.687Z,8092.00
2022-11-27T10:18:15.686Z,7924.00
2022-11-27T10:19:16.130Z,7820.00
2022-11-27T10:20:15.702Z,7684.00
2022-11-27T10:21:15.606Z,7600.00
2022-11-27T10:22:19.663Z,7564.00
2022-11-27T10:23:17.603Z,7600.00
2022-11-27T10:24:15.635Z,7612.00
2022-11-27T10:25:16.170Z,7628.00
2022-11-27T10:26:15.563Z,7636.00
2022-11-27T10:27:16.411Z,7672.00
2022-11-27T10:28:15.591Z,7720.00
2022-11-27T10:29:15.587Z,7772.00
2022-11-27T10:30:15.550Z,7804.00
2022-11-27T10:31:15.515Z,7880.00
2022-11-27T10:32:46.917Z,8044.00
2022-11-27T10:33:17.531Z,8460.00
2022-11-27T10:34:15.484Z,8576.00
2022-11-27T10:35:15.595Z,8712.00
2022-11-27T10:36:15.459Z,8724.00
2022-11-27T10:37:15.597Z,8820.00
2022-11-27T10:38:15.439Z,9052.00
2022-11-27T10:39:15.375Z,9324.00
2022-11-27T10:40:15.426Z,9532.00
2022-11-27T10:41:47.627Z,9904.00
2022-11-27T10:42:16.359Z,10296.00
2022-11-27T10:43:16.280Z,10636.00
2022-11-27T10:44:15.383Z,11168.00
2022-11-27T10:45:15.411Z,11772.00
2022-11-27T10:46:15.442Z,12484.00
2022-11-27T10:47:15.298Z,13376.00
2022-11-27T10:48:15.347Z,14508.00
2022-11-27T10:49:15.352Z,13416.00
2022-11-27T10:50:15.343Z,13516.00
2022-11-27T10:51:15.283Z,12976.00
2022-11-27T10:52:15.388Z,12784.00
2022-11-27T10:53:15.304Z,12900.00
2022-11-27T10:54:15.259Z,13384.00
2022-11-27T10:55:15.572Z,14096.00
2022-11-27T10:56:15.508Z,14364.00
2022-11-27T10:57:15.222Z,16800.00
2022-11-27T10:58:15.810Z,16832.00
2022-11-27T10:59:15.204Z,25312.00
2022-11-27T11:00:15.224Z,27936.00
2022-11-27T11:01:15.340Z,28864.00
2022-11-27T11:02:15.244Z,27712.00
2022-11-27T11:03:15.168Z,24064.00
2022-11-27T11:04:36.330Z,20960.00
2022-11-27T11:05:35.036Z,17184.00
2022-11-27T11:06:22.193Z,16736.00
2022-11-27T11:07:17.126Z,17408.00
2022-11-27T11:08:15.284Z,17120.00
2022-11-27T11:09:15.109Z,17248.00
2022-11-27T11:10:15.063Z,18048.00
2022-11-27T11:11:15.080Z,16768.00
2022-11-27T11:12:16.063Z,15616.00
2022-11-27T11:13:15.136Z,14164.00
2022-11-27T11:14:15.080Z,13452.00
2022-11-27T11:15:15.000Z,12440.00
2022-11-27T11:16:16.053Z,10992.00
2022-11-27T11:17:15.104Z,10316.00
2022-11-27T11:18:14.960Z,9868.00
2022-11-27T11:19:15.034Z,9576.00
2022-11-27T11:20:15.402Z,9512.00
2022-11-27T11:21:15.155Z,9680.00
2022-11-27T11:22:15.089Z,10332.00
2022-11-27T11:23:14.967Z,11432.00
2022-11-27T11:24:15.082Z,9740.00
2022-11-27T11:25:15.003Z,9432.00
2022-11-27T11:26:14.960Z,9792.00
2022-11-27T11:27:14.988Z,10196.00
2022-11-27T11:28:14.956Z,9032.00
2022-11-27T11:29:14.900Z,8792.00
2022-11-27T11:30:15.920Z,8648.00
2022-11-27T11:31:15.919Z,8600.00
2022-11-27T11:32:15.084Z,8368.00
2022-11-27T11:33:14.867Z,8228.00
2022-11-27T11:34:14.881Z,8144.00
2022-11-27T11:35:15.060Z,7944.00
2022-11-27T11:36:14.992Z,7808.00
2022-11-27T11:40:22.711Z,7832.00
2022-11-27T11:40:49.569Z,7644.00
2022-11-27T11:41:49.311Z,7296.00
2022-11-27T11:42:49.460Z,6968.00
2022-11-27T11:43:49.126Z,6600.00
2022-11-27T11:44:49.112Z,6388.00
2022-11-27T11:45:49.240Z,6220.00
2022-11-27T11:46:49.073Z,6048.00
2022-11-27T11:47:49.108Z,5916.00
2022-11-27T11:48:49.132Z,5832.00
2022-11-27T11:49:49.045Z,5864.00
2022-11-27T11:50:49.189Z,5776.00
2022-11-27T11:51:49.073Z,5788.00
2022-11-27T11:52:49.105Z,5680.00
2022-11-27T11:53:49.044Z,5608.00
2022-11-27T11:54:48.970Z,5556.00
2022-11-27T11:55:49.067Z,5476.00
2022-11-27T11:56:49.002Z,5392.00
2022-11-27T11:57:49.029Z,5304.00
2022-11-27T11:58:49.017Z,5220.00
2022-11-27T11:59:48.994Z,5104.00
2022-11-27T12:01:11.779Z,5028.00
2022-11-27T12:01:50.983Z,4964.00
2022-11-27T12:02:49.012Z,4880.00
2022-11-27T12:03:48.925Z,4784.00
2022-11-27T12:04:49.008Z,4696.00
2022-11-27T12:05:48.923Z,4628.00
2022-11-27T12:06:48.916Z,4580.00
2022-11-27T12:07:52.273Z,4544.00
2022-11-27T12:08:49.892Z,4484.00
2022-11-27T12:09:48.824Z,4456.00
2022-11-27T12:10:48.788Z,4416.00
2022-11-27T12:11:48.967Z,4376.00
2022-11-27T12:12:48.865Z,4400.00
2022-11-27T12:13:48.868Z,4444.00
2022-11-27T12:14:48.749Z,4500.00
2022-11-27T12:15:48.869Z,4572.00
2022-11-27T12:16:48.844Z,4668.00
2022-11-27T12:17:48.711Z,4756.00
2022-11-27T12:18:48.695Z,4852.00
2022-11-27T12:19:48.748Z,4956.00
2022-11-27T12:20:48.722Z,5056.00
2022-11-27T12:21:48.669Z,5160.00
2022-11-27T12:22:48.657Z,5264.00
2022-11-27T12:23:48.717Z,5320.00
2022-11-27T12:24:48.654Z,5348.00
2022-11-27T12:25:48.625Z,5360.00
2022-11-27T12:26:48.754Z,5328.00
2022-11-27T12:27:48.705Z,5284.00
2022-11-27T12:28:48.611Z,5224.00
2022-11-27T12:29:48.589Z,5152.00
2022-11-27T12:30:49.675Z,5092.00
2022-11-27T12:31:48.707Z,5032.00
2022-11-27T12:32:48.618Z,4992.00
2022-11-27T12:33:48.598Z,4964.00
2022-11-27T12:34:48.521Z,4940.00
2022-11-27T12:35:48.585Z,4976.00
2022-11-27T12:36:48.614Z,5012.00
2022-11-27T12:37:48.529Z,5100.00
2022-11-27T12:38:48.626Z,5156.00
2022-11-27T12:39:48.466Z,5216.00
2022-11-27T12:40:48.540Z,5344.00
2022-11-27T12:41:48.507Z,5416.00
2022-11-27T12:42:48.471Z,5460.00
2022-11-27T12:43:48.464Z,5448.00
2022-11-27T12:44:48.448Z,5412.00
2022-11-27T12:45:48.665Z,5436.00
2022-11-27T12:46:48.415Z,5480.00
2022-11-27T12:47:48.474Z,5500.00
2022-11-27T12:48:48.339Z,5524.00
2022-11-27T12:49:48.351Z,5532.00
2022-11-27T12:50:48.420Z,5596.00
2022-11-27T12:51:48.438Z,5600.00
2022-11-27T12:52:48.386Z,5640.00
2022-11-27T12:53:48.376Z,5704.00
2022-11-27T12:54:48.315Z,5736.00
2022-11-27T12:55:48.380Z,5716.00
2022-11-27T12:56:48.365Z,5644.00
2022-11-27T12:57:48.260Z,5636.00
2022-11-27T12:58:48.358Z,5608.00
2022-11-27T12:59:53.288Z,5588.00